sensor_id;sensor_type;location;lat;lon;timestamp;temperature;humidity
28767;DHT22;15921;52.034;20.650;2024-02-14T00:00:16;5.50;99.90
28767;DHT22;15921;52.034;20.650;2024-02-14T00:02:45;5.50;99.90
28767;DHT22;15921;52.034;20.650;2024-02-14T00:05:15;5.60;99.90
28767;DHT22;15921;52.034;20.650;2024-02-14T00:07:41;5.50;99.90
28767;DHT22;15921;52.034;20.650;2024-02-14T00:10:07;5.50;99.90
28767;DHT22;15921;52.034;20.650;2024-02-14T00:12:33;5.50;99.90
28767;DHT22;15921;52.034;20.650;2024-02-14T00:14:59;5.50;99.90
28767;DHT22;15921;52.034;20.650;2024-02-14T00:17:25;5.50;99.90
28767;DHT22;15921;52.034;20.650;2024-02-14T00:19:51;5.60;99.90
28767;DHT22;15921;52.034;20.650;2024-02-14T00:22:16;5.50;99.90
28767;DHT22;15921;52.034;20.650;2024-02-14T00:24:42;5.50;99.90
28767;DHT22;15921;52.034;20.650;2024-02-14T00:27:09;5.50;99.90
28767;DHT22;15921;52.034;20.650;2024-02-14T00:29:35;5.50;99.90
28767;DHT22;15921;52.034;20.650;2024-02-14T00:32:01;5.50;99.90
28767;DHT22;15921;52.034;20.650;2024-02-14T00:34:27;5.50;99.90
28767;DHT22;15921;52.034;20.650;2024-02-14T00:36:53;5.50;99.90
28767;DHT22;15921;52.034;20.650;2024-02-14T00:39:18;5.60;99.90
28767;DHT22;15921;52.034;20.650;2024-02-14T00:41:46;5.60;99.90
28767;DHT22;15921;52.034;20.650;2024-02-14T00:44:13;5.60;99.90
28767;DHT22;15921;52.034;20.650;2024-02-14T00:46:42;5.60;99.90
28767;DHT22;15921;52.034;20.650;2024-02-14T00:49:09;5.60;99.90
28767;DHT22;15921;52.034;20.650;2024-02-14T00:51:36;5.60;99.90
28767;DHT22;15921;52.034;20.650;2024-02-14T00:54:04;5.60;99.90
28767;DHT22;15921;52.034;20.650;2024-02-14T00:56:29;5.60;99.90
28767;DHT22;15921;52.034;20.650;2024-02-14T00:58:55;5.60;99.90
28767;DHT22;15921;52.034;20.650;2024-02-14T01:01:22;5.60;99.90
28767;DHT22;15921;52.034;20.650;2024-02-14T01:03:48;5.70;99.90
28767;DHT22;15921;52.034;20.650;2024-02-14T01:06:14;5.60;99.90
28767;DHT22;15921;52.034;20.650;2024-02-14T01:08:41;5.60;99.90
28767;DHT22;15921;52.034;20.650;2024-02-14T01:11:08;5.60;99.90
28767;DHT22;15921;52.034;20.650;2024-02-14T01:13:34;5.60;99.90
28767;DHT22;15921;52.034;20.650;2024-02-14T01:15:59;5.60;99.90
28767;DHT22;15921;52.034;20.650;2024-02-14T01:18:25;5.50;99.90
28767;DHT22;15921;52.034;20.650;2024-02-14T01:20:51;5.40;99.90
28767;DHT22;15921;52.034;20.650;2024-02-14T01:23:17;5.40;99.90
28767;DHT22;15921;52.034;20.650;2024-02-14T01:25:42;5.40;99.90
28767;DHT22;15921;52.034;20.650;2024-02-14T01:28:09;5.30;99.90
28767;DHT22;15921;52.034;20.650;2024-02-14T01:30:35;5.30;99.90
28767;DHT22;15921;52.034;20.650;2024-02-14T01:33:02;5.20;99.90
28767;DHT22;15921;52.034;20.650;2024-02-14T01:35:29;5.10;99.90
28767;DHT22;15921;52.034;20.650;2024-02-14T01:37:55;5.10;99.90
28767;DHT22;15921;52.034;20.650;2024-02-14T01:40:21;4.90;99.90
28767;DHT22;15921;52.034;20.650;2024-02-14T01:42:47;4.80;99.90
28767;DHT22;15921;52.034;20.650;2024-02-14T01:45:13;4.70;99.90
28767;DHT22;15921;52.034;20.650;2024-02-14T01:47:39;4.50;99.90
28767;DHT22;15921;52.034;20.650;2024-02-14T01:50:08;4.40;99.90
28767;DHT22;15921;52.034;20.650;2024-02-14T01:52:37;4.30;99.90
28767;DHT22;15921;52.034;20.650;2024-02-14T01:55:05;4.20;99.90
28767;DHT22;15921;52.034;20.650;2024-02-14T01:57:31;4.10;99.90
28767;DHT22;15921;52.034;20.650;2024-02-14T01:59:59;4.00;99.90
28767;DHT22;15921;52.034;20.650;2024-02-14T02:02:26;4.00;99.90
28767;DHT22;15921;52.034;20.650;2024-02-14T02:04:52;3.90;99.90
28767;DHT22;15921;52.034;20.650;2024-02-14T02:07:18;3.70;99.90
28767;DHT22;15921;52.034;20.650;2024-02-14T02:09:45;3.60;99.90
28767;DHT22;15921;52.034;20.650;2024-02-14T02:12:11;3.40;99.90
28767;DHT22;15921;52.034;20.650;2024-02-14T02:14:37;3.30;99.90
28767;DHT22;15921;52.034;20.650;2024-02-14T02:17:03;3.10;99.90
28767;DHT22;15921;52.034;20.650;2024-02-14T02:19:33;3.00;99.90
28767;DHT22;15921;52.034;20.650;2024-02-14T02:22:00;2.90;99.90
28767;DHT22;15921;52.034;20.650;2024-02-14T02:24:26;2.80;99.90
28767;DHT22;15921;52.034;20.650;2024-02-14T02:26:52;2.70;99.90
28767;DHT22;15921;52.034;20.650;2024-02-14T02:29:17;2.60;99.90
28767;DHT22;15921;52.034;20.650;2024-02-14T02:31:46;2.50;99.90
28767;DHT22;15921;52.034;20.650;2024-02-14T02:34:12;2.40;99.90
28767;DHT22;15921;52.034;20.650;2024-02-14T02:36:38;2.30;99.90
28767;DHT22;15921;52.034;20.650;2024-02-14T02:39:04;2.30;99.90
28767;DHT22;15921;52.034;20.650;2024-02-14T02:41:30;2.20;99.90
28767;DHT22;15921;52.034;20.650;2024-02-14T02:43:59;2.10;99.90
28767;DHT22;15921;52.034;20.650;2024-02-14T02:46:25;2.00;99.90
28767;DHT22;15921;52.034;20.650;2024-02-14T02:48:52;1.90;99.90
28767;DHT22;15921;52.034;20.650;2024-02-14T02:51:20;1.90;99.90
28767;DHT22;15921;52.034;20.650;2024-02-14T02:53:47;1.80;99.90
28767;DHT22;15921;52.034;20.650;2024-02-14T02:56:12;1.80;99.90
28767;DHT22;15921;52.034;20.650;2024-02-14T02:58:40;1.70;99.90
28767;DHT22;15921;52.034;20.650;2024-02-14T03:01:09;1.60;99.90
28767;DHT22;15921;52.034;20.650;2024-02-14T03:03:37;1.60;99.90
28767;DHT22;15921;52.034;20.650;2024-02-14T03:06:06;1.50;99.90
28767;DHT22;15921;52.034;20.650;2024-02-14T03:08:32;1.50;99.90
28767;DHT22;15921;52.034;20.650;2024-02-14T03:11:08;1.40;99.90
28767;DHT22;15921;52.034;20.650;2024-02-14T03:13:34;1.40;99.90
28767;DHT22;15921;52.034;20.650;2024-02-14T03:16:01;1.30;99.90
28767;DHT22;15921;52.034;20.650;2024-02-14T03:18:27;1.30;99.90
28767;DHT22;15921;52.034;20.650;2024-02-14T03:20:53;1.30;99.90
28767;DHT22;15921;52.034;20.650;2024-02-14T03:23:21;1.30;99.90
28767;DHT22;15921;52.034;20.650;2024-02-14T03:25:48;1.30;99.90
28767;DHT22;15921;52.034;20.650;2024-02-14T03:28:13;1.30;99.90
28767;DHT22;15921;52.034;20.650;2024-02-14T03:30:39;1.20;99.90
28767;DHT22;15921;52.034;20.650;2024-02-14T03:33:05;1.30;99.90
28767;DHT22;15921;52.034;20.650;2024-02-14T03:35:33;1.20;99.90
28767;DHT22;15921;52.034;20.650;2024-02-14T03:38:01;1.20;99.90
28767;DHT22;15921;52.034;20.650;2024-02-14T03:40:27;1.20;99.90
28767;DHT22;15921;52.034;20.650;2024-02-14T03:42:58;1.10;99.90
28767;DHT22;15921;52.034;20.650;2024-02-14T03:45:24;1.00;99.90
28767;DHT22;15921;52.034;20.650;2024-02-14T03:47:49;1.00;99.90
28767;DHT22;15921;52.034;20.650;2024-02-14T03:50:15;0.90;99.90
28767;DHT22;15921;52.034;20.650;2024-02-14T03:52:41;0.90;99.90
28767;DHT22;15921;52.034;20.650;2024-02-14T03:55:08;0.80;99.90
28767;DHT22;15921;52.034;20.650;2024-02-14T03:57:39;0.80;99.90
28767;DHT22;15921;52.034;20.650;2024-02-14T04:00:05;0.70;99.90
28767;DHT22;15921;52.034;20.650;2024-02-14T04:02:34;0.70;99.90
28767;DHT22;15921;52.034;20.650;2024-02-14T04:05:00;0.70;99.90
28767;DHT22;15921;52.034;20.650;2024-02-14T04:07:28;0.60;99.90
28767;DHT22;15921;52.034;20.650;2024-02-14T04:09:55;0.60;99.90
28767;DHT22;15921;52.034;20.650;2024-02-14T04:12:21;0.50;99.90
28767;DHT22;15921;52.034;20.650;2024-02-14T04:14:46;0.50;99.90
28767;DHT22;15921;52.034;20.650;2024-02-14T04:17:12;0.50;99.90
28767;DHT22;15921;52.034;20.650;2024-02-14T04:19:39;0.40;99.90
28767;DHT22;15921;52.034;20.650;2024-02-14T04:22:04;0.40;99.90
28767;DHT22;15921;52.034;20.650;2024-02-14T04:24:33;0.30;99.90
28767;DHT22;15921;52.034;20.650;2024-02-14T04:27:00;0.30;99.90
28767;DHT22;15921;52.034;20.650;2024-02-14T04:29:28;0.20;99.90
28767;DHT22;15921;52.034;20.650;2024-02-14T04:31:56;0.20;99.90
28767;DHT22;15921;52.034;20.650;2024-02-14T04:34:23;0.20;99.90
28767;DHT22;15921;52.034;20.650;2024-02-14T04:36:49;0.20;99.90
28767;DHT22;15921;52.034;20.650;2024-02-14T04:39:14;0.10;99.90
28767;DHT22;15921;52.034;20.650;2024-02-14T04:41:40;0.10;99.90
28767;DHT22;15921;52.034;20.650;2024-02-14T04:44:06;0.10;99.90
28767;DHT22;15921;52.034;20.650;2024-02-14T04:46:32;0.10;99.90
28767;DHT22;15921;52.034;20.650;2024-02-14T04:49:00;0.20;99.90
28767;DHT22;15921;52.034;20.650;2024-02-14T04:51:27;0.20;99.90
28767;DHT22;15921;52.034;20.650;2024-02-14T04:53:52;0.20;99.90
28767;DHT22;15921;52.034;20.650;2024-02-14T04:56:19;0.10;99.90
28767;DHT22;15921;52.034;20.650;2024-02-14T04:58:44;0.10;99.90
28767;DHT22;15921;52.034;20.650;2024-02-14T05:01:10;0.10;99.90
28767;DHT22;15921;52.034;20.650;2024-02-14T05:03:36;0.10;99.90
28767;DHT22;15921;52.034;20.650;2024-02-14T05:06:02;0.10;99.90
28767;DHT22;15921;52.034;20.650;2024-02-14T05:08:28;0.00;99.90
28767;DHT22;15921;52.034;20.650;2024-02-14T05:10:53;0.10;99.90
28767;DHT22;15921;52.034;20.650;2024-02-14T05:13:19;0.10;99.90
28767;DHT22;15921;52.034;20.650;2024-02-14T05:15:45;0.00;99.90
28767;DHT22;15921;52.034;20.650;2024-02-14T05:18:10;0.00;99.90
28767;DHT22;15921;52.034;20.650;2024-02-14T05:20:36;0.00;99.90
28767;DHT22;15921;52.034;20.650;2024-02-14T05:23:03;-0.10;99.90
28767;DHT22;15921;52.034;20.650;2024-02-14T05:25:29;-0.10;99.90
28767;DHT22;15921;52.034;20.650;2024-02-14T05:27:57;-0.10;99.90
28767;DHT22;15921;52.034;20.650;2024-02-14T05:30:23;-0.10;99.90
28767;DHT22;15921;52.034;20.650;2024-02-14T05:32:50;-0.10;99.90
28767;DHT22;15921;52.034;20.650;2024-02-14T05:35:18;-0.10;99.90
28767;DHT22;15921;52.034;20.650;2024-02-14T05:37:43;-0.10;99.90
28767;DHT22;15921;52.034;20.650;2024-02-14T05:40:09;-0.20;99.90
28767;DHT22;15921;52.034;20.650;2024-02-14T05:42:35;-0.20;99.90
28767;DHT22;15921;52.034;20.650;2024-02-14T05:45:01;-0.20;99.90
28767;DHT22;15921;52.034;20.650;2024-02-14T05:47:28;-0.20;99.90
28767;DHT22;15921;52.034;20.650;2024-02-14T05:49:55;-0.30;99.90
28767;DHT22;15921;52.034;20.650;2024-02-14T05:52:21;-0.30;99.90
28767;DHT22;15921;52.034;20.650;2024-02-14T05:54:47;-0.30;99.90
28767;DHT22;15921;52.034;20.650;2024-02-14T05:57:13;-0.30;99.90
28767;DHT22;15921;52.034;20.650;2024-02-14T05:59:39;-0.30;99.90
28767;DHT22;15921;52.034;20.650;2024-02-14T06:02:05;-0.30;99.90
28767;DHT22;15921;52.034;20.650;2024-02-14T06:04:33;-0.30;99.90
28767;DHT22;15921;52.034;20.650;2024-02-14T06:06:59;-0.30;99.90
28767;DHT22;15921;52.034;20.650;2024-02-14T06:09:24;-0.30;99.90
28767;DHT22;15921;52.034;20.650;2024-02-14T06:11:50;-0.30;99.90
28767;DHT22;15921;52.034;20.650;2024-02-14T06:14:16;-0.20;99.90
28767;DHT22;15921;52.034;20.650;2024-02-14T06:16:42;-0.20;99.90
28767;DHT22;15921;52.034;20.650;2024-02-14T06:19:07;-0.20;99.90
28767;DHT22;15921;52.034;20.650;2024-02-14T06:21:34;-0.10;99.90
28767;DHT22;15921;52.034;20.650;2024-02-14T06:24:01;0.00;99.90
28767;DHT22;15921;52.034;20.650;2024-02-14T06:26:30;0.00;99.90
28767;DHT22;15921;52.034;20.650;2024-02-14T06:28:56;0.10;99.90
28767;DHT22;15921;52.034;20.650;2024-02-14T06:31:22;0.10;99.90
28767;DHT22;15921;52.034;20.650;2024-02-14T06:33:48;0.20;99.90
28767;DHT22;15921;52.034;20.650;2024-02-14T06:36:14;0.20;99.90
28767;DHT22;15921;52.034;20.650;2024-02-14T06:38:40;0.30;99.90
28767;DHT22;15921;52.034;20.650;2024-02-14T06:41:06;0.30;99.90
28767;DHT22;15921;52.034;20.650;2024-02-14T06:43:31;0.40;99.90
28767;DHT22;15921;52.034;20.650;2024-02-14T06:45:57;0.50;99.90
28767;DHT22;15921;52.034;20.650;2024-02-14T06:48:23;0.50;99.90
28767;DHT22;15921;52.034;20.650;2024-02-14T06:50:53;0.60;99.90
28767;DHT22;15921;52.034;20.650;2024-02-14T06:53:19;0.60;99.90
28767;DHT22;15921;52.034;20.650;2024-02-14T06:55:44;0.70;99.90
28767;DHT22;15921;52.034;20.650;2024-02-14T06:58:10;0.80;99.90
28767;DHT22;15921;52.034;20.650;2024-02-14T07:00:36;0.90;99.90
28767;DHT22;15921;52.034;20.650;2024-02-14T07:03:02;1.00;99.90
28767;DHT22;15921;52.034;20.650;2024-02-14T07:05:28;1.10;99.90
28767;DHT22;15921;52.034;20.650;2024-02-14T07:07:55;1.30;99.90
28767;DHT22;15921;52.034;20.650;2024-02-14T07:10:21;1.50;99.90
28767;DHT22;15921;52.034;20.650;2024-02-14T07:12:46;1.60;99.90
28767;DHT22;15921;52.034;20.650;2024-02-14T07:15:12;1.80;99.90
28767;DHT22;15921;52.034;20.650;2024-02-14T07:17:38;2.00;99.90
28767;DHT22;15921;52.034;20.650;2024-02-14T07:20:06;2.20;99.90
28767;DHT22;15921;52.034;20.650;2024-02-14T07:22:35;2.30;99.90
28767;DHT22;15921;52.034;20.650;2024-02-14T07:25:00;2.50;99.90
28767;DHT22;15921;52.034;20.650;2024-02-14T07:27:26;2.60;99.90
28767;DHT22;15921;52.034;20.650;2024-02-14T07:29:52;2.80;99.90
28767;DHT22;15921;52.034;20.650;2024-02-14T07:32:18;2.90;99.90
28767;DHT22;15921;52.034;20.650;2024-02-14T07:34:44;3.00;99.90
28767;DHT22;15921;52.034;20.650;2024-02-14T07:37:10;3.10;99.90
28767;DHT22;15921;52.034;20.650;2024-02-14T07:39:35;3.20;99.90
28767;DHT22;15921;52.034;20.650;2024-02-14T07:42:02;3.40;99.90
28767;DHT22;15921;52.034;20.650;2024-02-14T07:44:28;3.50;99.90
28767;DHT22;15921;52.034;20.650;2024-02-14T07:46:54;3.60;99.90
28767;DHT22;15921;52.034;20.650;2024-02-14T07:49:20;3.70;99.90
28767;DHT22;15921;52.034;20.650;2024-02-14T07:51:46;3.80;99.90
28767;DHT22;15921;52.034;20.650;2024-02-14T07:54:12;4.00;99.90
28767;DHT22;15921;52.034;20.650;2024-02-14T07:56:37;4.10;99.90
28767;DHT22;15921;52.034;20.650;2024-02-14T07:59:04;4.20;99.90
28767;DHT22;15921;52.034;20.650;2024-02-14T08:01:31;4.30;99.90
28767;DHT22;15921;52.034;20.650;2024-02-14T08:03:58;4.40;99.90
28767;DHT22;15921;52.034;20.650;2024-02-14T08:06:24;4.60;99.90
28767;DHT22;15921;52.034;20.650;2024-02-14T08:08:49;4.70;99.90
28767;DHT22;15921;52.034;20.650;2024-02-14T08:11:19;4.80;99.90
28767;DHT22;15921;52.034;20.650;2024-02-14T08:13:45;4.90;99.90
28767;DHT22;15921;52.034;20.650;2024-02-14T08:16:11;5.00;99.90
28767;DHT22;15921;52.034;20.650;2024-02-14T08:18:37;5.10;99.90
28767;DHT22;15921;52.034;20.650;2024-02-14T08:21:05;5.20;99.90
28767;DHT22;15921;52.034;20.650;2024-02-14T08:23:32;5.30;99.90
28767;DHT22;15921;52.034;20.650;2024-02-14T08:25:58;5.40;99.90
28767;DHT22;15921;52.034;20.650;2024-02-14T08:28:23;5.60;99.90
28767;DHT22;15921;52.034;20.650;2024-02-14T08:30:49;5.60;99.90
28767;DHT22;15921;52.034;20.650;2024-02-14T08:33:15;5.70;99.90
28767;DHT22;15921;52.034;20.650;2024-02-14T08:35:41;5.80;99.90
28767;DHT22;15921;52.034;20.650;2024-02-14T08:38:07;5.90;99.90
28767;DHT22;15921;52.034;20.650;2024-02-14T08:40:34;6.00;99.90
28767;DHT22;15921;52.034;20.650;2024-02-14T08:42:59;6.10;99.90
28767;DHT22;15921;52.034;20.650;2024-02-14T08:45:26;6.20;99.90
28767;DHT22;15921;52.034;20.650;2024-02-14T08:47:55;6.30;99.90
28767;DHT22;15921;52.034;20.650;2024-02-14T08:50:21;6.40;99.90
28767;DHT22;15921;52.034;20.650;2024-02-14T08:52:46;6.50;99.90
28767;DHT22;15921;52.034;20.650;2024-02-14T08:55:12;6.60;99.90
28767;DHT22;15921;52.034;20.650;2024-02-14T08:57:42;6.60;99.90
28767;DHT22;15921;52.034;20.650;2024-02-14T09:00:08;6.70;99.90
28767;DHT22;15921;52.034;20.650;2024-02-14T09:02:36;6.80;99.90
28767;DHT22;15921;52.034;20.650;2024-02-14T09:05:02;6.80;99.90
28767;DHT22;15921;52.034;20.650;2024-02-14T09:07:30;6.90;99.90
28767;DHT22;15921;52.034;20.650;2024-02-14T09:09:57;7.00;99.90
28767;DHT22;15921;52.034;20.650;2024-02-14T09:12:22;7.10;99.90
28767;DHT22;15921;52.034;20.650;2024-02-14T09:14:48;7.10;99.90
28767;DHT22;15921;52.034;20.650;2024-02-14T09:17:14;7.20;99.90
28767;DHT22;15921;52.034;20.650;2024-02-14T09:19:40;7.30;99.90
28767;DHT22;15921;52.034;20.650;2024-02-14T09:22:06;7.40;99.90
28767;DHT22;15921;52.034;20.650;2024-02-14T09:24:32;7.40;99.90
28767;DHT22;15921;52.034;20.650;2024-02-14T09:26:58;7.50;99.90
28767;DHT22;15921;52.034;20.650;2024-02-14T09:29:24;7.60;99.90
28767;DHT22;15921;52.034;20.650;2024-02-14T09:31:51;7.70;99.90
28767;DHT22;15921;52.034;20.650;2024-02-14T09:34:17;7.80;99.90
28767;DHT22;15921;52.034;20.650;2024-02-14T09:36:44;7.90;99.90
28767;DHT22;15921;52.034;20.650;2024-02-14T09:39:10;8.00;99.90
28767;DHT22;15921;52.034;20.650;2024-02-14T09:41:42;8.00;99.90
28767;DHT22;15921;52.034;20.650;2024-02-14T09:44:09;8.10;99.90
28767;DHT22;15921;52.034;20.650;2024-02-14T09:46:38;8.10;99.10
28767;DHT22;15921;52.034;20.650;2024-02-14T09:49:05;8.20;98.70
28767;DHT22;15921;52.034;20.650;2024-02-14T09:51:31;8.30;97.90
28767;DHT22;15921;52.034;20.650;2024-02-14T09:53:59;8.40;97.30
28767;DHT22;15921;52.034;20.650;2024-02-14T09:56:25;8.50;95.90
28767;DHT22;15921;52.034;20.650;2024-02-14T09:58:53;8.60;94.80
28767;DHT22;15921;52.034;20.650;2024-02-14T10:01:25;8.60;94.20
28767;DHT22;15921;52.034;20.650;2024-02-14T10:03:53;8.70;93.00
28767;DHT22;15921;52.034;20.650;2024-02-14T10:06:19;8.70;92.50
28767;DHT22;15921;52.034;20.650;2024-02-14T10:08:49;8.80;92.00
28767;DHT22;15921;52.034;20.650;2024-02-14T10:11:19;8.90;91.60
28767;DHT22;15921;52.034;20.650;2024-02-14T10:13:49;9.00;91.20
28767;DHT22;15921;52.034;20.650;2024-02-14T10:16:19;9.10;90.60
28767;DHT22;15921;52.034;20.650;2024-02-14T10:18:48;9.20;90.20
28767;DHT22;15921;52.034;20.650;2024-02-14T10:21:16;9.30;89.90
28767;DHT22;15921;52.034;20.650;2024-02-14T10:23:45;9.40;90.00
28767;DHT22;15921;52.034;20.650;2024-02-14T10:26:16;9.40;88.90
28767;DHT22;15921;52.034;20.650;2024-02-14T10:28:45;9.40;87.60
28767;DHT22;15921;52.034;20.650;2024-02-14T10:31:11;9.40;87.10
28767;DHT22;15921;52.034;20.650;2024-02-14T10:33:38;9.50;86.70
28767;DHT22;15921;52.034;20.650;2024-02-14T10:36:07;9.50;86.20
28767;DHT22;15921;52.034;20.650;2024-02-14T10:38:34;9.60;85.90
28767;DHT22;15921;52.034;20.650;2024-02-14T10:41:01;9.60;84.90
28767;DHT22;15921;52.034;20.650;2024-02-14T10:43:27;9.70;84.60
28767;DHT22;15921;52.034;20.650;2024-02-14T10:45:54;9.70;82.80
28767;DHT22;15921;52.034;20.650;2024-02-14T10:48:22;9.80;82.90
28767;DHT22;15921;52.034;20.650;2024-02-14T10:50:51;9.90;82.90
28767;DHT22;15921;52.034;20.650;2024-02-14T10:53:18;9.90;80.10
28767;DHT22;15921;52.034;20.650;2024-02-14T10:55:47;9.90;80.10
28767;DHT22;15921;52.034;20.650;2024-02-14T10:58:15;9.90;80.60
28767;DHT22;15921;52.034;20.650;2024-02-14T11:00:42;9.90;80.00
28767;DHT22;15921;52.034;20.650;2024-02-14T11:03:08;10.10;79.60
28767;DHT22;15921;52.034;20.650;2024-02-14T11:05:45;10.10;78.80
28767;DHT22;15921;52.034;20.650;2024-02-14T11:08:24;10.20;78.10
28767;DHT22;15921;52.034;20.650;2024-02-14T11:11:01;10.20;77.90
28767;DHT22;15921;52.034;20.650;2024-02-14T11:13:30;10.30;77.40
28767;DHT22;15921;52.034;20.650;2024-02-14T11:16:09;10.30;77.70
28767;DHT22;15921;52.034;20.650;2024-02-14T11:18:35;10.40;77.10
28767;DHT22;15921;52.034;20.650;2024-02-14T11:21:15;10.50;77.20
28767;DHT22;15921;52.034;20.650;2024-02-14T11:23:41;10.60;77.10
28767;DHT22;15921;52.034;20.650;2024-02-14T11:26:15;10.60;75.90
28767;DHT22;15921;52.034;20.650;2024-02-14T11:28:41;10.60;76.00
28767;DHT22;15921;52.034;20.650;2024-02-14T11:31:08;10.70;74.70
28767;DHT22;15921;52.034;20.650;2024-02-14T11:33:35;10.70;75.00
28767;DHT22;15921;52.034;20.650;2024-02-14T11:36:08;10.80;74.70
28767;DHT22;15921;52.034;20.650;2024-02-14T11:38:39;10.80;74.50
28767;DHT22;15921;52.034;20.650;2024-02-14T11:41:05;10.90;74.60
28767;DHT22;15921;52.034;20.650;2024-02-14T11:43:31;11.00;74.20
28767;DHT22;15921;52.034;20.650;2024-02-14T11:45:57;11.20;73.90
28767;DHT22;15921;52.034;20.650;2024-02-14T11:48:23;11.20;73.70
28767;DHT22;15921;52.034;20.650;2024-02-14T11:50:54;11.40;73.30
28767;DHT22;15921;52.034;20.650;2024-02-14T11:53:21;12.00;72.50
28767;DHT22;15921;52.034;20.650;2024-02-14T11:55:47;13.40;69.50
28767;DHT22;15921;52.034;20.650;2024-02-14T11:58:15;14.80;65.20
28767;DHT22;15921;52.034;20.650;2024-02-14T12:00:42;16.10;61.60
28767;DHT22;15921;52.034;20.650;2024-02-14T12:03:29;17.10;59.20
28767;DHT22;15921;52.034;20.650;2024-02-14T12:05:55;18.00;55.50
28767;DHT22;15921;52.034;20.650;2024-02-14T12:08:22;18.50;54.40
28767;DHT22;15921;52.034;20.650;2024-02-14T12:10:48;19.00;53.90
28767;DHT22;15921;52.034;20.650;2024-02-14T12:13:21;19.50;52.00
28767;DHT22;15921;52.034;20.650;2024-02-14T12:15:48;20.10;51.50
28767;DHT22;15921;52.034;20.650;2024-02-14T12:18:16;20.80;50.10
28767;DHT22;15921;52.034;20.650;2024-02-14T12:20:42;20.60;48.40
28767;DHT22;15921;52.034;20.650;2024-02-14T12:23:18;20.10;48.50
28767;DHT22;15921;52.034;20.650;2024-02-14T12:25:44;20.30;48.70
28767;DHT22;15921;52.034;20.650;2024-02-14T12:28:18;20.50;48.30
28767;DHT22;15921;52.034;20.650;2024-02-14T12:30:49;20.80;47.60
28767;DHT22;15921;52.034;20.650;2024-02-14T12:33:17;21.30;47.30
28767;DHT22;15921;52.034;20.650;2024-02-14T12:35:48;21.70;46.30
28767;DHT22;15921;52.034;20.650;2024-02-14T12:38:15;20.80;46.60
28767;DHT22;15921;52.034;20.650;2024-02-14T12:40:41;20.90;47.10
28767;DHT22;15921;52.034;20.650;2024-02-14T12:43:08;21.10;46.90
28767;DHT22;15921;52.034;20.650;2024-02-14T12:45:34;21.30;46.70
28767;DHT22;15921;52.034;20.650;2024-02-14T12:48:00;21.40;46.10
28767;DHT22;15921;52.034;20.650;2024-02-14T12:50:26;21.20;45.80
28767;DHT22;15921;52.034;20.650;2024-02-14T12:52:52;20.70;46.50
28767;DHT22;15921;52.034;20.650;2024-02-14T12:55:18;20.30;47.70
28767;DHT22;15921;52.034;20.650;2024-02-14T12:57:45;20.00;46.60
28767;DHT22;15921;52.034;20.650;2024-02-14T13:00:11;19.50;47.00
28767;DHT22;15921;52.034;20.650;2024-02-14T13:02:37;19.10;47.80
28767;DHT22;15921;52.034;20.650;2024-02-14T13:05:04;19.00;48.10
28767;DHT22;15921;52.034;20.650;2024-02-14T13:07:31;19.20;48.10
28767;DHT22;15921;52.034;20.650;2024-02-14T13:09:56;19.40;48.00
28767;DHT22;15921;52.034;20.650;2024-02-14T13:12:22;19.90;47.50
28767;DHT22;15921;52.034;20.650;2024-02-14T13:14:48;20.20;47.10
28767;DHT22;15921;52.034;20.650;2024-02-14T13:17:14;20.10;47.00
28767;DHT22;15921;52.034;20.650;2024-02-14T13:19:40;19.70;47.00
28767;DHT22;15921;52.034;20.650;2024-02-14T13:22:08;19.50;47.40
28767;DHT22;15921;52.034;20.650;2024-02-14T13:24:34;19.30;47.80
28767;DHT22;15921;52.034;20.650;2024-02-14T13:27:00;19.40;48.10
28767;DHT22;15921;52.034;20.650;2024-02-14T13:29:26;19.70;48.10
28767;DHT22;15921;52.034;20.650;2024-02-14T13:31:51;20.40;47.10
28767;DHT22;15921;52.034;20.650;2024-02-14T13:34:18;20.60;46.60
28767;DHT22;15921;52.034;20.650;2024-02-14T13:36:45;20.60;46.50
28767;DHT22;15921;52.034;20.650;2024-02-14T13:39:11;20.80;46.20
28767;DHT22;15921;52.034;20.650;2024-02-14T13:41:40;20.60;46.10
28767;DHT22;15921;52.034;20.650;2024-02-14T13:44:09;20.00;46.10
28767;DHT22;15921;52.034;20.650;2024-02-14T13:46:35;20.10;46.50
28767;DHT22;15921;52.034;20.650;2024-02-14T13:49:01;20.10;46.00
28767;DHT22;15921;52.034;20.650;2024-02-14T13:51:27;20.10;46.10
28767;DHT22;15921;52.034;20.650;2024-02-14T13:53:53;20.80;46.00
28767;DHT22;15921;52.034;20.650;2024-02-14T13:56:19;21.00;44.60
28767;DHT22;15921;52.034;20.650;2024-02-14T13:58:51;20.70;44.80
28767;DHT22;15921;52.034;20.650;2024-02-14T14:01:17;21.30;44.50
28767;DHT22;15921;52.034;20.650;2024-02-14T14:03:45;21.60;43.60
28767;DHT22;15921;52.034;20.650;2024-02-14T14:06:13;21.50;43.70
28767;DHT22;15921;52.034;20.650;2024-02-14T14:08:39;21.60;43.50
28767;DHT22;15921;52.034;20.650;2024-02-14T14:11:05;21.70;43.00
28767;DHT22;15921;52.034;20.650;2024-02-14T14:13:31;20.90;43.50
28767;DHT22;15921;52.034;20.650;2024-02-14T14:15:59;20.20;44.90
28767;DHT22;15921;52.034;20.650;2024-02-14T14:18:25;20.30;45.40
28767;DHT22;15921;52.034;20.650;2024-02-14T14:20:51;20.60;45.40
28767;DHT22;15921;52.034;20.650;2024-02-14T14:23:17;20.60;44.80
28767;DHT22;15921;52.034;20.650;2024-02-14T14:25:43;20.10;45.10
28767;DHT22;15921;52.034;20.650;2024-02-14T14:28:09;19.80;46.10
28767;DHT22;15921;52.034;20.650;2024-02-14T14:30:35;19.80;45.80
28767;DHT22;15921;52.034;20.650;2024-02-14T14:33:02;19.80;45.50
28767;DHT22;15921;52.034;20.650;2024-02-14T14:35:29;19.40;45.80
28767;DHT22;15921;52.034;20.650;2024-02-14T14:38:02;18.90;46.40
28767;DHT22;15921;52.034;20.650;2024-02-14T14:40:28;18.60;46.70
28767;DHT22;15921;52.034;20.650;2024-02-14T14:42:54;18.40;47.30
28767;DHT22;15921;52.034;20.650;2024-02-14T14:45:20;17.80;47.60
28767;DHT22;15921;52.034;20.650;2024-02-14T14:47:45;17.00;48.70
28767;DHT22;15921;52.034;20.650;2024-02-14T14:50:12;16.40;50.20
28767;DHT22;15921;52.034;20.650;2024-02-14T14:52:43;15.60;51.40
28767;DHT22;15921;52.034;20.650;2024-02-14T14:55:09;14.70;52.80
28767;DHT22;15921;52.034;20.650;2024-02-14T14:57:35;13.90;54.30
28767;DHT22;15921;52.034;20.650;2024-02-14T15:00:15;13.30;56.00
28767;DHT22;15921;52.034;20.650;2024-02-14T15:02:42;12.70;57.10
28767;DHT22;15921;52.034;20.650;2024-02-14T15:05:12;12.10;58.40
28767;DHT22;15921;52.034;20.650;2024-02-14T15:07:38;11.70;59.40
28767;DHT22;15921;52.034;20.650;2024-02-14T15:10:05;11.40;60.60
28767;DHT22;15921;52.034;20.650;2024-02-14T15:12:31;11.30;61.90
28767;DHT22;15921;52.034;20.650;2024-02-14T15:15:01;11.10;62.90
28767;DHT22;15921;52.034;20.650;2024-02-14T15:17:27;10.90;63.40
28767;DHT22;15921;52.034;20.650;2024-02-14T15:19:54;10.70;64.30
28767;DHT22;15921;52.034;20.650;2024-02-14T15:22:19;10.40;65.10